Time;durP1;ratioP1;P1;durP2;ratioP2;P2;SDS_P1;SDS_P2;PMS_P1;PMS_P2;Temp;Humidity;BMP_temperature;BMP_pressure;BME280_temperature;BME280_humidity;BME280_pressure;Samples;Min_cycle;Max_cycle;Signal;HPM_P1;HPM_P2
2021/12/02 00:00:04;;;;;;;;;;;5.10;99.90;;;;;;5141649;27;19968;-48
2021/12/02 00:02:31;;;;;;;;;;;5.10;99.90;;;;;;5146126;27;19931;-49
2021/12/02 00:04:58;;;;;;;;;;;5.30;99.90;;;;;;5153509;27;20025;-49
2021/12/02 00:07:24;;;;;;;;;;;5.10;99.90;;;;;;5153676;27;19927;-48
2021/12/02 00:09:51;;;;;;;;;;;5.00;99.90;;;;;;5153527;27;19923;-48
2021/12/02 00:12:19;;;;;;;;;;;5.10;99.90;;;;;;5153381;27;20341;-48
2021/12/02 00:14:48;;;;;;;;;;;5.10;99.90;;;;;;5133089;27;19938;-48
2021/12/02 00:17:18;;;;;;;;;;;4.80;99.90;;;;;;5132790;27;19923;-48
2021/12/02 00:22:52;;;;;;;;;;;4.90;99.90;;;;;;5070783;28;19968;-48
2021/12/02 00:25:19;;;;;;;;;;;4.80;99.90;;;;;;5126204;27;19924;-48
2021/12/02 00:27:48;;;;;;;;;;;4.90;99.90;;;;;;5136235;27;20346;-50
2021/12/02 00:30:14;;;;;;;;;;;5.40;99.90;;;;;;5137720;27;19924;-48
2021/12/02 00:32:42;;;;;;;;;;;5.60;99.90;;;;;;5141503;27;19923;-48
2021/12/02 00:35:09;;;;;;;;;;;5.70;99.90;;;;;;5136176;27;20437;-48
2021/12/02 00:37:37;;;;;;;;;;;5.80;99.90;;;;;;5137350;27;19923;-50
2021/12/02 00:40:05;;;;;;;;;;;5.70;99.90;;;;;;5136221;27;19923;-49
2021/12/02 00:42:34;;;;;;;;;;;5.60;99.90;;;;;;5135483;27;19968;-49
2021/12/02 00:45:03;;;;;;;;;;;5.20;99.90;;;;;;5151528;27;19953;-48
2021/12/02 00:47:29;;;;;;;;;;;5.10;99.90;;;;;;5140643;27;20393;-48
2021/12/02 00:49:56;;;;;;;;;;;5.10;99.90;;;;;;5135768;27;20409;-50
2021/12/02 00:52:26;;;;;;;;;;;5.10;99.90;;;;;;5153434;27;19927;-49
2021/12/02 00:54:54;;;;;;;;;;;5.10;99.90;;;;;;5153366;27;19931;-50
2021/12/02 00:57:21;;;;;;;;;;;5.10;99.90;;;;;;5136784;27;19923;-49
2021/12/02 00:59:48;;;;;;;;;;;5.30;99.90;;;;;;5146139;27;20415;-47
2021/12/02 01:02:17;;;;;;;;;;;5.20;99.90;;;;;;5150673;27;19976;-49
2021/12/02 01:04:43;;;;;;;;;;;5.00;99.90;;;;;;5136812;27;20346;-49
2021/12/02 01:07:10;;;;;;;;;;;4.60;99.90;;;;;;5150836;27;19927;-48
2021/12/02 01:09:37;;;;;;;;;;;4.40;99.90;;;;;;5144728;27;19928;-49
2021/12/02 01:12:04;;;;;;;;;;;4.30;99.90;;;;;;5135242;27;19924;-48
2021/12/02 01:14:33;;;;;;;;;;;4.20;99.90;;;;;;5134778;27;20433;-49
2021/12/02 01:17:00;;;;;;;;;;;4.30;99.90;;;;;;5135412;27;19927;-48
2021/12/02 01:19:28;;;;;;;;;;;4.30;99.90;;;;;;5134978;27;20002;-49
2021/12/02 01:21:55;;;;;;;;;;;4.20;99.90;;;;;;5130577;27;19968;-48
2021/12/02 01:24:24;;;;;;;;;;;4.40;99.90;;;;;;5136255;27;19927;-49
2021/12/02 01:26:52;;;;;;;;;;;4.40;99.90;;;;;;5147976;27;20103;-49
2021/12/02 01:29:20;;;;;;;;;;;4.60;99.90;;;;;;5140592;27;19930;-50
2021/12/02 01:31:49;;;;;;;;;;;4.70;99.90;;;;;;5143551;27;19923;-50
2021/12/02 01:34:16;;;;;;;;;;;4.80;99.90;;;;;;5148316;27;20403;-48
2021/12/02 01:36:45;;;;;;;;;;;4.70;99.90;;;;;;5139887;27;19935;-49
2021/12/02 01:39:11;;;;;;;;;;;4.70;99.90;;;;;;5142472;27;19927;-48
2021/12/02 01:41:43;;;;;;;;;;;5.20;99.90;;;;;;5155351;27;19927;-49
2021/12/02 01:44:11;;;;;;;;;;;5.10;99.90;;;;;;5155403;27;19923;-48
2021/12/02 01:46:39;;;;;;;;;;;5.20;99.90;;;;;;5155730;27;19931;-49
2021/12/02 01:49:06;;;;;;;;;;;5.00;99.90;;;;;;5153158;27;20370;-49
2021/12/02 01:51:37;;;;;;;;;;;5.00;99.90;;;;;;5139770;27;19924;-47
2021/12/02 01:54:07;;;;;;;;;;;5.00;99.90;;;;;;5135525;27;19923;-49
2021/12/02 01:56:40;;;;;;;;;;;5.00;99.90;;;;;;5134673;27;19934;-49
2021/12/02 01:59:09;;;;;;;;;;;5.10;99.90;;;;;;5133896;27;19923;-49
2021/12/02 02:01:37;;;;;;;;;;;5.00;99.90;;;;;;5132367;27;19928;-49
2021/12/02 02:04:04;;;;;;;;;;;5.00;99.90;;;;;;5132396;27;20353;-48
2021/12/02 02:06:34;;;;;;;;;;;5.00;99.90;;;;;;5133580;27;19923;-47
2021/12/02 02:09:00;;;;;;;;;;;4.80;99.90;;;;;;5133565;27;19923;-48
2021/12/02 02:11:31;;;;;;;;;;;4.90;99.90;;;;;;5133619;27;19923;-48
2021/12/02 02:13:59;;;;;;;;;;;4.70;99.90;;;;;;5134413;27;19977;-48
2021/12/02 02:16:26;;;;;;;;;;;4.60;99.90;;;;;;5129118;27;19923;-48
2021/12/02 02:18:53;;;;;;;;;;;4.70;99.90;;;;;;5134311;27;19946;-48
2021/12/02 02:21:23;;;;;;;;;;;4.80;99.90;;;;;;5133844;27;19969;-48
2021/12/02 02:23:51;;;;;;;;;;;4.90;99.90;;;;;;5133979;27;19927;-48
2021/12/02 02:26:23;;;;;;;;;;;5.00;99.90;;;;;;5133653;27;20014;-47
2021/12/02 02:28:50;;;;;;;;;;;4.90;99.90;;;;;;5134095;27;19930;-47
2021/12/02 02:31:17;;;;;;;;;;;4.80;99.90;;;;;;5133735;27;20023;-47
2021/12/02 02:33:48;;;;;;;;;;;4.80;99.90;;;;;;5130051;27;19927;-47
2021/12/02 02:36:15;;;;;;;;;;;4.90;99.90;;;;;;5113295;27;20018;-46
2021/12/02 02:38:45;;;;;;;;;;;5.00;99.90;;;;;;5113648;28;19936;-47
2021/12/02 02:41:19;;;;;;;;;;;5.00;99.90;;;;;;5113111;28;19923;-47
2021/12/02 02:43:47;;;;;;;;;;;5.00;99.90;;;;;;5129045;27;20010;-47
2021/12/02 02:46:20;;;;;;;;;;;5.00;99.90;;;;;;5132653;27;20018;-47
2021/12/02 02:48:47;;;;;;;;;;;5.00;99.90;;;;;;5133278;27;19923;-46
2021/12/02 02:51:14;;;;;;;;;;;5.00;99.90;;;;;;5133538;27;19988;-48
2021/12/02 02:53:41;;;;;;;;;;;5.00;99.90;;;;;;5133479;27;20393;-47
2021/12/02 02:56:12;;;;;;;;;;;4.90;99.90;;;;;;5133658;27;19923;-46
2021/12/02 02:58:54;;;;;;;;;;;4.90;99.90;;;;;;5132736;27;19970;-47
2021/12/02 03:01:36;;;;;;;;;;;4.80;99.90;;;;;;5133181;27;19931;-47
2021/12/02 03:04:11;;;;;;;;;;;4.80;99.90;;;;;;5133326;27;19930;-47
2021/12/02 03:06:44;;;;;;;;;;;4.80;99.90;;;;;;5133378;27;19923;-47
2021/12/02 03:09:18;;;;;;;;;;;4.80;99.90;;;;;;5133450;27;20349;-47
2021/12/02 03:11:48;;;;;;;;;;;4.90;99.90;;;;;;5132981;27;19927;-47
2021/12/02 03:14:20;;;;;;;;;;;4.90;99.90;;;;;;5133475;27;19923;-47
2021/12/02 03:16:47;;;;;;;;;;;4.90;99.90;;;;;;5133058;27;19923;-46
2021/12/02 03:19:14;;;;;;;;;;;5.00;99.90;;;;;;5133158;27;19927;-48
2021/12/02 03:21:41;;;;;;;;;;;4.90;99.90;;;;;;5131712;27;19973;-47
2021/12/02 03:24:08;;;;;;;;;;;4.80;99.90;;;;;;5133079;27;19927;-47
2021/12/02 03:26:35;;;;;;;;;;;4.90;99.90;;;;;;5132965;27;19924;-47
2021/12/02 03:29:04;;;;;;;;;;;5.00;99.90;;;;;;5132339;27;19976;-47
2021/12/02 03:31:31;;;;;;;;;;;5.00;99.90;;;;;;5132280;27;19984;-47
2021/12/02 03:33:57;;;;;;;;;;;5.20;99.90;;;;;;5132385;27;19972;-47
2021/12/02 03:36:24;;;;;;;;;;;5.30;99.90;;;;;;5133211;27;19972;-47
2021/12/02 03:38:51;;;;;;;;;;;5.40;99.90;;;;;;5132696;27;19973;-48
2021/12/02 03:41:18;;;;;;;;;;;5.50;99.90;;;;;;5121755;27;19924;-48
2021/12/02 03:43:46;;;;;;;;;;;5.30;99.90;;;;;;5132414;28;19923;-47
2021/12/02 03:46:14;;;;;;;;;;;5.40;99.90;;;;;;5132637;27;20319;-47
2021/12/02 03:48:41;;;;;;;;;;;5.40;99.90;;;;;;5132440;27;19931;-47
2021/12/02 03:51:09;;;;;;;;;;;5.40;99.90;;;;;;5132167;27;19923;-47
2021/12/02 03:53:36;;;;;;;;;;;5.40;99.90;;;;;;5132614;27;19964;-47
2021/12/02 03:56:03;;;;;;;;;;;5.40;99.90;;;;;;5132779;27;19924;-47
2021/12/02 03:58:30;;;;;;;;;;;5.40;99.90;;;;;;5135659;27;20366;-46
2021/12/02 04:00:57;;;;;;;;;;;5.60;99.90;;;;;;5130140;27;19968;-47
2021/12/02 04:03:25;;;;;;;;;;;5.80;99.90;;;;;;5136917;27;19924;-47
2021/12/02 04:05:52;;;;;;;;;;;5.60;99.90;;;;;;5135897;27;19928;-47
2021/12/02 04:08:19;;;;;;;;;;;5.50;99.90;;;;;;5136660;27;20445;-47
2021/12/02 04:10:47;;;;;;;;;;;5.40;99.90;;;;;;5136651;27;19924;-47
2021/12/02 04:13:19;;;;;;;;;;;5.40;99.90;;;;;;5136961;27;19924;-47
2021/12/02 04:15:50;;;;;;;;;;;5.30;99.90;;;;;;5136675;27;19947;-47
2021/12/02 04:18:17;;;;;;;;;;;5.50;99.90;;;;;;5136656;27;20381;-47
2021/12/02 04:20:45;;;;;;;;;;;5.30;99.90;;;;;;5135268;27;20380;-47
2021/12/02 04:23:12;;;;;;;;;;;5.50;99.90;;;;;;5136340;27;19953;-47
2021/12/02 04:25:39;;;;;;;;;;;5.30;99.90;;;;;;5136306;27;19923;-46
2021/12/02 04:28:06;;;;;;;;;;;5.20;99.90;;;;;;5136331;27;20297;-47
2021/12/02 04:30:32;;;;;;;;;;;5.00;99.90;;;;;;5136158;27;19991;-46
2021/12/02 04:32:59;;;;;;;;;;;5.00;99.90;;;;;;5136404;27;19923;-48
2021/12/02 04:35:26;;;;;;;;;;;5.10;99.90;;;;;;5136078;27;19924;-47
2021/12/02 04:37:54;;;;;;;;;;;5.00;99.90;;;;;;5135992;27;20047;-47
2021/12/02 04:40:24;;;;;;;;;;;4.90;99.90;;;;;;5135504;27;19965;-46
2021/12/02 04:42:51;;;;;;;;;;;4.90;99.90;;;;;;5136013;27;19972;-47
2021/12/02 04:45:17;;;;;;;;;;;4.80;99.90;;;;;;5135809;27;19927;-47
2021/12/02 04:47:44;;;;;;;;;;;4.70;99.90;;;;;;5130874;27;20018;-47
2021/12/02 04:50:11;;;;;;;;;;;4.70;99.90;;;;;;5135695;27;19923;-47
2021/12/02 04:52:39;;;;;;;;;;;4.80;99.90;;;;;;5135832;27;20274;-47
2021/12/02 04:55:08;;;;;;;;;;;4.70;99.90;;;;;;5135224;27;19927;-47
2021/12/02 04:57:34;;;;;;;;;;;4.60;99.90;;;;;;5135733;27;19923;-47
2021/12/02 05:00:01;;;;;;;;;;;4.50;99.90;;;;;;5135518;27;19928;-47
2021/12/02 05:02:29;;;;;;;;;;;4.50;99.90;;;;;;5135693;27;19923;-47
2021/12/02 05:04:55;;;;;;;;;;;4.60;99.90;;;;;;5135528;27;19931;-46
2021/12/02 05:07:22;;;;;;;;;;;4.70;99.90;;;;;;5135617;27;19923;-47
2021/12/02 05:09:49;;;;;;;;;;;4.80;99.90;;;;;;5134401;27;19981;-46
2021/12/02 05:12:17;;;;;;;;;;;4.60;99.90;;;;;;5134887;27;19923;-46
2021/12/02 05:14:45;;;;;;;;;;;4.60;99.90;;;;;;5135298;27;19924;-47
2021/12/02 05:17:11;;;;;;;;;;;4.60;99.90;;;;;;5134902;27;19923;-46
2021/12/02 05:19:38;;;;;;;;;;;4.80;99.90;;;;;;5135552;27;19923;-48
2021/12/02 05:22:05;;;;;;;;;;;4.80;99.90;;;;;;5134946;27;19931;-47
2021/12/02 05:24:32;;;;;;;;;;;4.90;99.90;;;;;;5135383;27;20385;-47
2021/12/02 05:26:59;;;;;;;;;;;5.00;99.90;;;;;;5152280;22;20393;-50
2021/12/02 05:29:27;;;;;;;;;;;5.10;99.90;;;;;;5116585;27;19923;-49
2021/12/02 05:31:53;;;;;;;;;;;5.00;99.90;;;;;;5113659;28;19981;-50
2021/12/02 05:34:20;;;;;;;;;;;4.90;99.90;;;;;;5114594;28;19924;-50
2021/12/02 05:36:47;;;;;;;;;;;4.90;99.90;;;;;;5120949;27;19968;-50
2021/12/02 05:39:14;;;;;;;;;;;5.00;99.90;;;;;;5134983;27;19969;-50
2021/12/02 05:41:41;;;;;;;;;;;5.00;99.90;;;;;;5134896;27;19923;-50
2021/12/02 05:44:07;;;;;;;;;;;5.00;99.90;;;;;;5133146;27;19931;-50
2021/12/02 05:46:35;;;;;;;;;;;5.00;99.90;;;;;;5133760;27;20337;-49
2021/12/02 05:49:03;;;;;;;;;;;5.00;99.90;;;;;;5134183;27;19931;-49
2021/12/02 05:51:29;;;;;;;;;;;4.90;99.90;;;;;;5115520;27;19931;-50
2021/12/02 05:53:56;;;;;;;;;;;4.90;99.90;;;;;;5114094;28;19976;-50
2021/12/02 05:56:23;;;;;;;;;;;4.90;99.90;;;;;;5114080;28;19924;-50
2021/12/02 05:58:50;;;;;;;;;;;5.00;99.90;;;;;;5114034;28;19927;-49
2021/12/02 06:01:16;;;;;;;;;;;5.00;99.90;;;;;;5128565;27;19924;-52
2021/12/02 06:03:45;;;;;;;;;;;4.90;99.90;;;;;;5134003;27;20456;-49
2021/12/02 06:06:14;;;;;;;;;;;4.90;99.90;;;;;;5134074;27;19976;-50
2021/12/02 06:08:41;;;;;;;;;;;4.80;99.90;;;;;;5133985;27;19924;-49
2021/12/02 06:11:08;;;;;;;;;;;4.80;99.90;;;;;;5134229;27;19930;-50
2021/12/02 06:13:34;;;;;;;;;;;4.70;99.90;;;;;;5134229;27;19968;-50
2021/12/02 06:16:01;;;;;;;;;;;4.70;99.90;;;;;;5125668;27;20358;-49
2021/12/02 06:18:28;;;;;;;;;;;4.60;99.90;;;;;;5129757;27;19924;-49
2021/12/02 06:20:56;;;;;;;;;;;4.70;99.90;;;;;;5127189;27;19927;-50
2021/12/02 06:23:23;;;;;;;;;;;4.70;99.90;;;;;;5113596;28;19928;-50
2021/12/02 06:25:50;;;;;;;;;;;4.60;99.90;;;;;;5119341;27;19928;-49
2021/12/02 06:28:18;;;;;;;;;;;4.90;99.90;;;;;;5125723;27;20002;-49
2021/12/02 06:30:45;;;;;;;;;;;4.80;99.90;;;;;;5132972;27;19928;-48
2021/12/02 06:33:12;;;;;;;;;;;4.90;99.90;;;;;;5133876;27;19931;-49
2021/12/02 06:35:40;;;;;;;;;;;4.70;99.90;;;;;;5133671;27;19924;-50
2021/12/02 06:38:08;;;;;;;;;;;4.30;99.90;;;;;;5125495;27;19923;-50
2021/12/02 06:40:37;;;;;;;;;;;4.10;99.90;;;;;;5122236;27;19999;-49
2021/12/02 06:43:04;;;;;;;;;;;4.20;99.90;;;;;;5133611;27;19923;-49
2021/12/02 06:45:31;;;;;;;;;;;4.30;99.90;;;;;;5133884;27;20266;-50
2021/12/02 06:47:59;;;;;;;;;;;4.30;99.90;;;;;;5129183;27;19927;-49
2021/12/02 06:50:27;;;;;;;;;;;4.10;99.90;;;;;;5118575;27;19930;-49
2021/12/02 06:52:55;;;;;;;;;;;4.10;99.90;;;;;;5114670;27;19923;-49
2021/12/02 06:55:24;;;;;;;;;;;4.00;99.90;;;;;;5131002;27;19923;-49
2021/12/02 06:57:51;;;;;;;;;;;4.20;99.90;;;;;;5132559;27;19924;-49
2021/12/02 07:00:19;;;;;;;;;;;4.30;99.90;;;;;;5132923;27;19927;-50
2021/12/02 07:02:46;;;;;;;;;;;4.20;99.90;;;;;;5128164;27;19924;-49
2021/12/02 07:05:13;;;;;;;;;;;4.20;99.90;;;;;;5133490;27;19935;-49
2021/12/02 07:07:40;;;;;;;;;;;4.20;99.90;;;;;;5117213;27;19968;-50
2021/12/02 07:10:09;;;;;;;;;;;4.30;99.90;;;;;;5116663;27;19923;-49
2021/12/02 07:12:39;;;;;;;;;;;4.20;99.90;;;;;;5119894;27;19927;-49
2021/12/02 07:15:10;;;;;;;;;;;4.40;99.90;;;;;;5133282;27;20026;-49
2021/12/02 07:17:37;;;;;;;;;;;4.30;99.90;;;;;;5114541;27;19923;-49
2021/12/02 07:20:05;;;;;;;;;;;4.20;99.90;;;;;;5130489;27;20355;-49
2021/12/02 07:22:31;;;;;;;;;;;3.90;99.90;;;;;;5125416;28;19923;-49
2021/12/02 07:24:58;;;;;;;;;;;4.10;99.90;;;;;;5132473;28;19931;-49
2021/12/02 07:27:26;;;;;;;;;;;4.10;99.90;;;;;;5132940;28;20022;-49
2021/12/02 07:32:42;;;;;;;;;;;3.80;99.90;;;;;;5114863;27;19924;-50
2021/12/02 07:35:10;;;;;;;;;;;3.80;99.90;;;;;;5136709;27;19930;-50
2021/12/02 07:37:37;;;;;;;;;;;3.80;99.90;;;;;;5136728;27;19931;-50
2021/12/02 07:40:04;;;;;;;;;;;3.80;99.90;;;;;;5134344;27;19931;-50
2021/12/02 07:42:31;;;;;;;;;;;4.00;99.90;;;;;;5125771;27;19977;-50
2021/12/02 07:45:00;;;;;;;;;;;4.20;99.90;;;;;;5128711;27;19972;-49
2021/12/02 07:47:27;;;;;;;;;;;4.30;99.90;;;;;;5128011;27;19931;-49
2021/12/02 07:49:54;;;;;;;;;;;4.60;99.90;;;;;;5135808;27;19928;-50
2021/12/02 07:52:21;;;;;;;;;;;4.70;99.90;;;;;;5136479;27;19923;-50
2021/12/02 07:54:50;;;;;;;;;;;4.60;99.90;;;;;;5136414;27;19974;-50
2021/12/02 07:57:17;;;;;;;;;;;4.70;99.90;;;;;;5128197;27;19924;-50
2021/12/02 07:59:44;;;;;;;;;;;4.90;99.90;;;;;;5128194;27;19976;-49
2021/12/02 08:02:15;;;;;;;;;;;5.00;99.90;;;;;;5136020;27;19927;-51
2021/12/02 08:04:41;;;;;;;;;;;4.80;99.90;;;;;;5134236;27;19924;-51
2021/12/02 08:07:08;;;;;;;;;;;4.90;99.90;;;;;;5136228;27;19976;-51
2021/12/02 08:09:35;;;;;;;;;;;4.80;99.90;;;;;;5135683;27;20377;-51
2021/12/02 08:12:03;;;;;;;;;;;4.80;99.90;;;;;;5126615;27;19924;-50
2021/12/02 08:14:30;;;;;;;;;;;4.90;99.90;;;;;;5132406;27;20394;-50
2021/12/02 08:16:57;;;;;;;;;;;5.00;99.90;;;;;;5134939;27;19950;-50
2021/12/02 08:19:25;;;;;;;;;;;5.00;99.90;;;;;;5135876;27;19924;-50
2021/12/02 08:21:52;;;;;;;;;;;5.30;99.90;;;;;;5135889;27;20350;-51
2021/12/02 08:24:22;;;;;;;;;;;5.60;99.90;;;;;;5136156;27;19923;-50
2021/12/02 08:26:49;;;;;;;;;;;5.90;99.90;;;;;;5135179;27;19923;-50
2021/12/02 08:29:16;;;;;;;;;;;6.30;99.90;;;;;;5137797;27;19931;-50
2021/12/02 08:31:43;;;;;;;;;;;6.20;99.90;;;;;;5146557;27;20030;-49
2021/12/02 08:34:10;;;;;;;;;;;6.40;99.90;;;;;;5135576;27;20011;-49
2021/12/02 08:36:42;;;;;;;;;;;6.90;99.90;;;;;;5135544;27;19976;-50
2021/12/02 08:39:12;;;;;;;;;;;7.30;99.90;;;;;;5135683;27;19924;-49
2021/12/02 08:41:43;;;;;;;;;;;7.20;99.90;;;;;;5132415;27;19930;-50
2021/12/02 08:44:10;;;;;;;;;;;7.10;99.90;;;;;;5114718;28;19930;-50
2021/12/02 08:46:37;;;;;;;;;;;6.80;99.90;;;;;;5115864;27;19928;-49
2021/12/02 08:49:04;;;;;;;;;;;6.50;99.90;;;;;;5120226;27;20392;-50
2021/12/02 08:51:31;;;;;;;;;;;6.30;99.90;;;;;;5135430;27;20360;-49
2021/12/02 08:53:59;;;;;;;;;;;6.20;99.90;;;;;;5135575;27;19931;-50
2021/12/02 08:56:26;;;;;;;;;;;6.20;99.90;;;;;;5134739;27;19924;-50
2021/12/02 08:58:52;;;;;;;;;;;6.10;99.90;;;;;;5118249;27;19923;-50
2021/12/02 09:01:19;;;;;;;;;;;6.20;99.90;;;;;;5118068;27;20383;-50
2021/12/02 09:03:47;;;;;;;;;;;6.20;99.90;;;;;;5130290;27;19972;-50
2021/12/02 09:06:14;;;;;;;;;;;6.20;99.90;;;;;;5131028;27;19923;-50
2021/12/02 09:08:41;;;;;;;;;;;6.20;99.90;;;;;;5114735;28;19927;-50
2021/12/02 09:11:10;;;;;;;;;;;6.30;99.90;;;;;;5117786;27;19927;-50
2021/12/02 09:13:37;;;;;;;;;;;6.40;99.90;;;;;;5127317;27;19924;-51
2021/12/02 09:16:04;;;;;;;;;;;6.30;99.90;;;;;;5116074;27;19932;-50
2021/12/02 09:18:31;;;;;;;;;;;6.10;99.90;;;;;;5131139;27;20384;-49
2021/12/02 09:20:58;;;;;;;;;;;6.20;99.90;;;;;;5130463;27;19963;-50
2021/12/02 09:23:25;;;;;;;;;;;5.90;99.90;;;;;;5114425;28;19924;-50
2021/12/02 09:25:52;;;;;;;;;;;5.90;99.90;;;;;;5124754;27;19931;-50
2021/12/02 09:28:20;;;;;;;;;;;5.90;99.90;;;;;;5134707;27;20342;-50
2021/12/02 09:30:47;;;;;;;;;;;6.00;99.90;;;;;;5132599;27;19931;-50
2021/12/02 09:33:14;;;;;;;;;;;6.00;99.90;;;;;;5113965;28;20488;-50
2021/12/02 09:35:41;;;;;;;;;;;6.00;99.90;;;;;;5114158;28;20018;-50
2021/12/02 09:38:10;;;;;;;;;;;6.00;99.90;;;;;;5125371;27;19958;-50
2021/12/02 09:40:39;;;;;;;;;;;6.10;99.90;;;;;;5134385;27;19923;-50
2021/12/02 09:43:05;;;;;;;;;;;6.20;99.90;;;;;;5134547;27;19999;-50
2021/12/02 09:45:34;;;;;;;;;;;6.30;99.90;;;;;;5128329;27;19924;-50
2021/12/02 09:48:01;;;;;;;;;;;6.30;99.90;;;;;;5113573;28;19928;-49
2021/12/02 09:50:32;;;;;;;;;;;6.20;99.90;;;;;;5113654;28;19997;-50
2021/12/02 09:53:06;;;;;;;;;;;6.50;99.90;;;;;;5113592;28;19930;-50
2021/12/02 09:55:37;;;;;;;;;;;6.20;99.90;;;;;;5113159;28;19971;-50
2021/12/02 09:58:06;;;;;;;;;;;6.20;99.90;;;;;;5113483;28;19924;-50
2021/12/02 10:00:40;;;;;;;;;;;6.40;99.90;;;;;;5113463;28;19930;-50
2021/12/02 10:03:17;;;;;;;;;;;6.40;99.90;;;;;;5114583;27;19976;-50
2021/12/02 10:05:49;;;;;;;;;;;6.50;99.90;;;;;;5113756;28;19947;-50
2021/12/02 10:08:20;;;;;;;;;;;6.40;99.90;;;;;;5113517;28;19974;-50
2021/12/02 10:10:54;;;;;;;;;;;6.50;99.90;;;;;;5125057;27;19964;-50
2021/12/02 10:13:27;;;;;;;;;;;6.20;99.90;;;;;;5133868;27;19930;-50
2021/12/02 10:16:05;;;;;;;;;;;6.30;99.90;;;;;;5133675;27;19924;-51
2021/12/02 10:18:35;;;;;;;;;;;6.20;99.90;;;;;;5132586;27;19930;-50
2021/12/02 10:21:15;;;;;;;;;;;5.90;99.90;;;;;;5122532;27;19927;-50
2021/12/02 10:23:47;;;;;;;;;;;5.90;99.90;;;;;;5133719;27;19924;-49
2021/12/02 10:26:18;;;;;;;;;;;6.00;99.90;;;;;;5133463;27;19946;-49
2021/12/02 10:28:45;;;;;;;;;;;6.10;99.90;;;;;;5133694;27;20297;-50
2021/12/02 10:31:18;;;;;;;;;;;5.80;99.90;;;;;;5132027;27;19923;-50
2021/12/02 10:33:46;;;;;;;;;;;5.70;99.90;;;;;;5122762;27;20446;-50
2021/12/02 10:36:23;;;;;;;;;;;5.60;99.90;;;;;;5133514;27;19927;-49
2021/12/02 10:38:50;;;;;;;;;;;5.60;99.90;;;;;;5133949;27;20278;-48
2021/12/02 10:41:18;;;;;;;;;;;5.40;99.90;;;;;;5133164;27;19988;-49
2021/12/02 10:43:59;;;;;;;;;;;5.30;99.90;;;;;;5133693;27;19931;-50
2021/12/02 10:46:28;;;;;;;;;;;5.20;99.90;;;;;;5133367;27;19947;-49
2021/12/02 10:48:55;;;;;;;;;;;5.30;99.90;;;;;;5130959;27;19933;-50
2021/12/02 10:51:35;;;;;;;;;;;5.50;99.90;;;;;;5120168;27;19928;-50
2021/12/02 10:54:04;;;;;;;;;;;5.80;99.90;;;;;;5127407;27;19930;-50
2021/12/02 10:56:32;;;;;;;;;;;6.30;99.90;;;;;;5133296;27;20035;-51
2021/12/02 10:58:58;;;;;;;;;;;6.70;99.90;;;;;;5133385;27;19927;-51
2021/12/02 11:01:39;;;;;;;;;;;7.20;99.90;;;;;;5132523;27;19927;-51
2021/12/02 11:04:06;;;;;;;;;;;7.80;99.90;;;;;;5127914;27;19963;-50
2021/12/02 11:06:56;;;;;;;;;;;8.30;99.90;;;;;;5112075;28;19928;-51
2021/12/02 11:09:26;;;;;;;;;;;8.50;99.90;;;;;;5128970;27;19966;-50
2021/12/02 11:12:10;;;;;;;;;;;8.50;99.90;;;;;;5132697;27;19923;-51
2021/12/02 11:14:37;;;;;;;;;;;8.60;99.90;;;;;;5132830;27;19924;-50
2021/12/02 11:17:09;;;;;;;;;;;8.80;99.90;;;;;;5132607;27;19930;-51
2021/12/02 11:19:36;;;;;;;;;;;9.00;99.90;;;;;;5132409;27;19924;-51
2021/12/02 11:22:07;;;;;;;;;;;9.40;99.90;;;;;;5132479;27;19976;-51
2021/12/02 11:24:34;;;;;;;;;;;9.40;99.90;;;;;;5131646;28;19924;-52
2021/12/02 11:27:12;;;;;;;;;;;9.20;99.90;;;;;;5154398;22;19927;-52
2021/12/02 11:29:46;;;;;;;;;;;9.00;99.90;;;;;;5132820;28;19923;-53
2021/12/02 11:32:24;;;;;;;;;;;8.30;99.90;;;;;;5131996;27;20347;-52
2021/12/02 11:34:58;;;;;;;;;;;8.20;99.90;;;;;;5132416;27;19980;-54
2021/12/02 11:37:26;;;;;;;;;;;8.10;99.90;;;;;;5130582;28;20002;-55
2021/12/02 11:39:53;;;;;;;;;;;8.30;99.90;;;;;;5135120;27;19970;-54
2021/12/02 11:42:20;;;;;;;;;;;8.40;99.90;;;;;;5144331;27;19924;-54
2021/12/02 11:44:47;;;;;;;;;;;8.40;99.90;;;;;;5126046;28;19923;-53
2021/12/02 11:47:14;;;;;;;;;;;8.50;99.90;;;;;;5130347;28;19958;-54
2021/12/02 11:49:42;;;;;;;;;;;8.90;99.90;;;;;;5132611;27;19923;-54
2021/12/02 11:52:09;;;;;;;;;;;9.10;99.90;;;;;;5128470;28;19924;-55
2021/12/02 11:54:36;;;;;;;;;;;9.40;99.90;;;;;;5132553;28;19980;-53
2021/12/02 11:57:03;;;;;;;;;;;9.40;99.90;;;;;;5132629;28;19923;-55
2021/12/02 11:59:30;;;;;;;;;;;8.90;99.90;;;;;;5132377;28;19924;-54
2021/12/02 12:01:57;;;;;;;;;;;8.40;99.90;;;;;;5132081;28;19927;-54
2021/12/02 12:04:24;;;;;;;;;;;8.40;99.90;;;;;;5132535;27;20279;-54
2021/12/02 12:06:54;;;;;;;;;;;8.30;99.90;;;;;;5131492;27;20330;-55
2021/12/02 12:09:22;;;;;;;;;;;8.40;99.90;;;;;;5132139;27;19932;-54
2021/12/02 12:11:51;;;;;;;;;;;8.30;99.90;;;;;;5132316;27;19927;-54
2021/12/02 12:14:19;;;;;;;;;;;8.60;99.90;;;;;;5132668;28;19930;-55
2021/12/02 12:17:04;;;;;;;;;;;8.40;99.90;;;;;;5132185;28;19923;-55
2021/12/02 12:19:33;;;;;;;;;;;8.20;99.90;;;;;;5135568;27;20309;-54
2021/12/02 12:22:02;;;;;;;;;;;8.10;99.90;;;;;;5133767;27;19924;-56
2021/12/02 12:24:39;;;;;;;;;;;8.00;99.90;;;;;;5130563;27;20307;-54
2021/12/02 12:27:10;;;;;;;;;;;7.90;99.90;;;;;;5133626;27;20366;-54
2021/12/02 12:29:37;;;;;;;;;;;7.80;99.90;;;;;;5135577;27;20456;-52
2021/12/02 12:32:36;;;;;;;;;;;8.00;99.90;;;;;;5133226;27;19976;-53
2021/12/02 12:35:07;;;;;;;;;;;7.80;99.90;;;;;;5132681;27;20286;-54
2021/12/02 12:37:48;;;;;;;;;;;7.60;99.90;;;;;;5135652;27;19935;-55
2021/12/02 12:40:17;;;;;;;;;;;7.50;99.90;;;;;;5135396;27;19923;-53
2021/12/02 12:42:48;;;;;;;;;;;7.50;99.90;;;;;;5135880;27;20491;-54
2021/12/02 12:45:23;;;;;;;;;;;7.40;99.90;;;;;;5135836;27;20295;-54
2021/12/02 12:47:52;;;;;;;;;;;7.10;99.90;;;;;;5135344;27;19923;-55
2021/12/02 12:50:26;;;;;;;;;;;7.10;99.90;;;;;;5134984;27;19931;-54
2021/12/02 12:52:55;;;;;;;;;;;6.80;99.90;;;;;;5130556;27;20389;-53
2021/12/02 12:55:22;;;;;;;;;;;6.40;99.90;;;;;;5134639;27;19930;-53
2021/12/02 12:58:08;;;;;;;;;;;6.40;99.90;;;;;;5130316;27;19935;-54
2021/12/02 13:00:36;;;;;;;;;;;6.40;99.90;;;;;;5135216;27;19923;-54
2021/12/02 13:03:08;;;;;;;;;;;6.40;99.90;;;;;;5135474;27;20349;-53
2021/12/02 13:05:41;;;;;;;;;;;6.20;99.90;;;;;;5133962;27;19939;-54
2021/12/02 13:08:19;;;;;;;;;;;6.00;99.90;;;;;;5134736;27;19930;-54
2021/12/02 13:10:51;;;;;;;;;;;5.90;99.90;;;;;;5134779;27;19923;-54
2021/12/02 13:13:25;;;;;;;;;;;5.70;99.90;;;;;;5134598;27;19923;-53
2021/12/02 13:15:52;;;;;;;;;;;5.40;99.90;;;;;;5134708;27;19923;-53
2021/12/02 13:18:32;;;;;;;;;;;5.20;99.90;;;;;;5135365;27;20338;-54
2021/12/02 13:21:17;;;;;;;;;;;5.00;99.90;;;;;;5134956;27;19930;-54
2021/12/02 13:23:55;;;;;;;;;;;4.80;99.90;;;;;;5134886;27;19927;-54
2021/12/02 13:26:23;;;;;;;;;;;4.70;99.90;;;;;;5134993;27;20014;-53
2021/12/02 13:28:51;;;;;;;;;;;4.80;99.90;;;;;;5129942;27;19924;-53
2021/12/02 13:31:19;;;;;;;;;;;4.80;99.90;;;;;;5113288;28;20399;-54
2021/12/02 13:33:48;;;;;;;;;;;4.90;99.90;;;;;;5114462;28;19924;-54
2021/12/02 13:36:16;;;;;;;;;;;5.00;99.90;;;;;;5114511;27;20026;-54
2021/12/02 13:38:44;;;;;;;;;;;5.20;99.90;;;;;;5114170;28;19924;-53
2021/12/02 13:41:14;;;;;;;;;;;5.40;99.90;;;;;;5119614;27;19923;-53
2021/12/02 13:43:58;;;;;;;;;;;5.60;99.90;;;;;;5134680;27;19923;-54
2021/12/02 13:46:29;;;;;;;;;;;5.60;99.90;;;;;;5134883;27;19928;-54
2021/12/02 13:48:58;;;;;;;;;;;5.70;99.90;;;;;;5134022;27;19932;-54
2021/12/02 13:54:24;;;;;;;;;;;6.00;99.90;;;;;;5134543;27;19926;-55
2021/12/02 13:56:52;;;;;;;;;;;6.10;99.90;;;;;;5134304;27;19935;-54
2021/12/02 13:59:23;;;;;;;;;;;6.10;99.90;;;;;;5134564;27;20393;-54
2021/12/02 14:01:51;;;;;;;;;;;6.20;99.90;;;;;;5134599;27;19955;-54
2021/12/02 14:04:17;;;;;;;;;;;6.30;99.90;;;;;;5134513;27;19971;-54
2021/12/02 14:06:44;;;;;;;;;;;6.20;99.90;;;;;;5133864;27;19923;-55
2021/12/02 14:09:18;;;;;;;;;;;6.20;99.90;;;;;;5133517;27;19923;-53
2021/12/02 14:11:45;;;;;;;;;;;6.10;99.90;;;;;;5134023;27;19930;-53
2021/12/02 14:14:20;;;;;;;;;;;6.00;99.90;;;;;;5133942;27;20407;-54
2021/12/02 14:16:46;;;;;;;;;;;6.00;99.90;;;;;;5134381;27;19923;-54
2021/12/02 14:19:15;;;;;;;;;;;5.90;99.90;;;;;;5134619;27;20400;-53
2021/12/02 14:21:42;;;;;;;;;;;6.00;99.90;;;;;;5140960;27;19923;-53
2021/12/02 14:24:09;;;;;;;;;;;5.90;99.90;;;;;;5148211;27;19944;-55
2021/12/02 14:26:36;;;;;;;;;;;5.80;99.90;;;;;;5151347;27;19945;-54
2021/12/02 14:29:03;;;;;;;;;;;5.70;99.90;;;;;;5153144;27;19930;-55
2021/12/02 14:31:32;;;;;;;;;;;5.60;99.90;;;;;;5153304;27;19944;-55
2021/12/02 14:34:00;;;;;;;;;;;5.50;99.90;;;;;;5152442;27;19924;-55
2021/12/02 14:36:28;;;;;;;;;;;5.60;99.90;;;;;;5152900;27;19968;-54
2021/12/02 14:38:59;;;;;;;;;;;5.90;99.90;;;;;;5153443;27;19923;-53
2021/12/02 14:41:27;;;;;;;;;;;5.70;99.90;;;;;;5150442;27;19945;-54
2021/12/02 14:43:55;;;;;;;;;;;5.60;99.90;;;;;;5134232;27;19923;-52
2021/12/02 14:46:23;;;;;;;;;;;5.60;99.90;;;;;;5131741;27;20349;-52
2021/12/02 14:49:02;;;;;;;;;;;5.70;99.90;;;;;;5113293;28;19923;-54